Terminal Aerodrome Forecast
Issued by NWS

Home | Current Version | Previous Version | Text Only | Print | Product List | Glossary On
Versions: 1 2 3 4 5 6 7 8 9 10 11 12 13 14 15 16 17 18 19 20
726
FTUS44 KLZK 301011 AAB
TAFPBF
TAF AMD
KPBF 301011Z 3010/3106 21008KT P6SM VCSH SCT025 BKN050
      TEMPO 3010/3014 BKN008
     FM301800 25010G18KT P6SM SCT050
     FM310000 26007KT P6SM SKC=

USA.gov is the U.S. government's official web portal to all federal, state and local government web resources and services.